Situs API Video Gratis Terbaik

AVDBAPI.COM

Cari katalog, periksa data, dan salin URL API bersih dari satu dasbor cepat.

Telegram Gabung komunitas Telegram untuk update!
Today
30
Pembaruan Hari Ini
Censored
314171
Video Disensor
Total
474382
Total Video

Daftar Video

Data terbaru diurutkan berdasarkan waktu pembaruan.

ID Nama CODE Kategori Diperbarui API
265810 121119_940 Aku Ingin Diikat ~ Aku Adalah Peliharaan Pemuas Seksmu! ~ 121119_940 Tanpa sensor 2025-08-29 06:20:00 API
265809 C0930-KI210114 Wanita Seksi 38 Tahun Namie Tamaki C0930-KI210114 Tanpa sensor 2025-08-29 06:19:50 API
265808 112520-01 Koleksi Memek Paling Berharga - Silakan Lihat Memek Keiko - 112520-01 Tanpa sensor 2025-08-29 06:19:40 API
265807 KB1510 Team Kimura Edisi Spesial - KB1510 Tanpa sensor 2025-08-29 06:19:30 API
265806 H-220220 Kazuki Koike, Gadis 22 Tahun H-220220 Tanpa sensor 2025-08-29 06:19:20 API
265805 042420-287 Cuckold ~ Istri Dikencingi Sperma Rekan Kerja Suaminya ~ 042420-287 Tanpa sensor 2025-08-29 06:19:10 API
265804 061921-001 Nafsu seks tak terkendali dari istri cantik yang frustrasi karena suami impoten 061921-001 Tanpa sensor 2025-08-29 06:19:00 API
265803 072215-286 Jalang Cantik ~ Perawatan Kenikmatan Dokter Wanita S ~ 072215-286 Tanpa sensor 2025-08-29 06:18:50 API
265802 H0930-ORI1605 Riyo Igai, 31 Tahun H0930-ORI1605 Tanpa sensor 2025-08-29 06:18:40 API
265801 FC2-PPV-4483986 [Moha] Putingku Merah Muda! Merah Menyala! Isap Seperti Binatang Buas! Sangat Intens dan Seksual! FC2-PPV-4483986 Tanpa sensor 2025-08-29 06:18:30 API
265800 112620-01 Gadis montok yang rakus memakai cheongsam transparan dan melakukan seks yang panas 112620-01 Tanpa sensor 2025-08-29 06:18:20 API
265799 C0930-HITOZUMA1345 Nozomi Hijiri, 27 Tahun C0930-HITOZUMA1345 Tanpa sensor 2025-08-29 06:18:10 API
265798 SKY-283 Sky Angel Vol.169: Nami Itoshino SKY-283 Tanpa sensor 2025-08-29 06:18:00 API
265797 HEYZO-2532 Anak Gadis Tukang Gokkun Yang Menelan Habis Sperma HEYZO-2532 Tanpa sensor 2025-08-29 06:17:50 API
265796 121319_941 Koleksi Model Seksi Chiaki Saeki 121319_941 Tanpa sensor 2025-08-29 06:17:40 API
265795 042520-288 Ngentot sepuasnya bareng wanita cantik menggoda 042520-288 Tanpa sensor 2025-08-29 06:17:30 API
265794 H4610-KI220222 Akina Koizumi Gadis 21 Tahun H4610-KI220222 Tanpa sensor 2025-08-29 06:17:20 API
265793 H0930-KI210627 Junko Takai, Wanita 37 Tahun yang Seksi H0930-KI210627 Tanpa sensor 2025-08-29 06:17:10 API
265792 072415-293 Catwalk Poison 126 [Wanita Cantik Spek Tinggi] Dengeki advent 072415-293 Tanpa sensor 2025-08-29 06:17:00 API
265791 FC2-PPV-4484216 Wanita Putih dari Dataran Tinggi yang Menggairahkan. Wanita Cantik Belajar Membuka Kaki Lebar FC2-PPV-4484216 Tanpa sensor 2025-08-29 06:16:50 API
265790 C0930-KI210117 Mayu Aizawa Wanita 29 Tahun C0930-KI210117 Tanpa sensor 2025-08-29 06:16:40 API
265789 112720-01 Blowjob nikmat Miyuki dengan ritme maju mundur yang konstan 112720-01 Tanpa sensor 2025-08-29 06:16:30 API
265788 121419_942 Seks Tanpa Henti Bersama Koharu Tachibana 121419_942 Tanpa sensor 2025-08-29 06:16:20 API
265787 HEYZO-2533 Ciuman Tangan Menggoda dari Shennan Hikari HEYZO-2533 Tanpa sensor 2025-08-29 06:16:10 API
265786 062221-001 Ecstasy ~ Rasanya ingin dikentot terus menerus hari ini ~ Mirai Natsukawa 062221-001 Tanpa sensor 2025-08-29 06:16:00 API
265785 042620-289 Video Natsuo Kikuta yang Belum Pernah Dirilis 042620-289 Tanpa sensor 2025-08-29 06:15:50 API
265783 H0930-KI210629 Mao Toyama Wanita Seksi Usia 32 Tahun H0930-KI210629 Tanpa sensor 2025-08-29 06:15:30 API
265782 HEYZO-2541 Mainkan payudara raksasa yang empuk sepuas hati lalu cumshot di dalam vagina # Darcia 3 HEYZO-2541 Tanpa sensor 2025-08-29 06:15:20 API
265781 H4610-KI220206 Ryoko Matsu Usia 29 Tahun H4610-KI220206 Tanpa sensor 2025-08-29 06:15:10 API
265780 112820-01 Perawat Nakal Mengukur Panasnya Kontol di Dalam Vagina 112820-01 Tanpa sensor 2025-08-29 06:15:00 API
265779 062321-001 Debut Vol.68 ~ Gravure Idol Baru Dengan Senyum Menggoda Terus-terusan Dikencingi Sperma Sejak Shot Pertama ~ Asami Ishida 062321-001 Tanpa sensor 2025-08-29 06:14:50 API
265778 HEYZO-2534 Rahasia panas yang aku lakukan dengan ibu sahabat karibku HEYZO-2534 Tanpa sensor 2025-08-29 06:14:40 API
265777 KB1511 Team Kimura Edisi Spesial - KB1511 Tanpa sensor 2025-08-29 06:14:30 API
265776 FC2-PPV-4484219 Gadis Suci Kulit Putih yang Sangat Menggoda Hingga Membuat Ereksi, Puting Merah Muda Menegang! Tak Kuasa Menahan 3 Kali Creampie Hingga Tubuhnya Tak Terkendali FC2-PPV-4484219 Tanpa sensor 2025-08-29 06:14:20 API
265774 120220-01 Koleksi Memek Pilihan - Silakan Lihat Memek Kana - 120220-01 Tanpa sensor 2025-08-29 06:14:00 API
265773 C0930-KI210116 Gold Pack Gadis 20 Tahun C0930-KI210116 Tanpa sensor 2025-08-29 06:13:50 API
265772 080615-316 Catwalk Poison 127 [Babe Cantik Dengan Pesona Luar Biasa] 080615-316 Tanpa sensor 2025-08-29 06:13:40 API
265771 042720-290 Wanita Matang Tanpa Makeup 042720-290 Tanpa sensor 2025-08-29 06:13:30 API
265770 062421-001 Buku Foto Memek Maki Kozue 062421-001 Tanpa sensor 2025-08-29 06:13:20 API
265768 H4610-TK0053 Koidemizu Yuzuka Gadis 20 Tahun H4610-TK0053 Tanpa sensor 2025-08-29 06:13:00 API
265767 120320-01 Pengalaman Pertama Merasakan Kenikmatan Liar di Tempat Pijat 120320-01 Tanpa sensor 2025-08-29 06:12:50 API
265766 HEYZO-2535 Seberapa kuat dia bisa bertahan! Mencoba memberi imbalan menggoda pada amatir! HEYZO-2535 Tanpa sensor 2025-08-29 06:12:40 API
265765 062521-001 Playcon Soap Land Spesial: Ao Emi Pijat Sabun yang Sangat Nikmat 062521-001 Tanpa sensor 2025-08-29 06:12:30 API
265764 042820-291 Gadis Deriheru Seksi Dengan Leotard Transparan yang Menggoda 042820-291 Tanpa sensor 2025-08-29 06:12:20 API
265763 H0930-KI210701 Misaki Nana Wanita Seksi 31 Tahun H0930-KI210701 Tanpa sensor 2025-08-29 06:12:10 API
265762 HONB-334 Gal Super Terkenal Diam-diam Main Banyak Pria Tanpa Ketahuan Pacarnya, Hasrat Seks Sebenarnya Adalah Seks Telanjang Tanpa Pengaman HONB-334 Disensor (Mosaik) 2025-08-29 06:12:00 API
265761 080615-317 Kisah Terbaik Sang Putri Gelembung 080615-317 Tanpa sensor 2025-08-29 06:11:50 API
265759 C0930-KI210119 Tomomi Fukushima Gadis Seksi Usia 24 Tahun C0930-KI210119 Tanpa sensor 2025-08-29 06:11:30 API
265758 FC2-PPV-4482850 Dewi OL yang Rapi! Aku memilikinya - jadikan dia mainan seks lengkap untuk ngentot vagina, cumshot di wajah, dan biarkan sperma membanjiri tubuhnya FC2-PPV-4482850 Tanpa sensor 2025-08-29 06:11:20 API
265757 120520-01 Rekaman Gonzo Wanita Cantik yang Aku Temui di Negara Tropis 120520-01 Tanpa sensor 2025-08-29 06:11:10 API